createdAt,value
2019-03-24T00:00:56.724Z,99.90
2019-03-24T00:02:07.196Z,99.90
2019-03-24T00:03:12.675Z,99.90
2019-03-24T00:04:18.041Z,99.90
2019-03-24T00:05:23.433Z,99.90
2019-03-24T00:06:28.833Z,99.90
2019-03-24T00:07:34.333Z,99.90
2019-03-24T00:08:39.731Z,99.90
2019-03-24T00:09:45.116Z,99.90
2019-03-24T00:10:50.563Z,99.90
2019-03-24T00:11:55.968Z,99.90
2019-03-24T00:13:01.479Z,99.90
2019-03-24T00:14:07.084Z,99.90
2019-03-24T00:15:12.757Z,99.90
2019-03-24T00:16:18.243Z,99.90
2019-03-24T00:17:23.676Z,99.90
2019-03-24T00:18:29.117Z,99.90
2019-03-24T00:19:34.636Z,99.90
2019-03-24T00:20:40.089Z,99.90
2019-03-24T00:21:45.643Z,99.90
2019-03-24T00:22:51.076Z,99.90
2019-03-24T00:23:56.527Z,99.90
2019-03-24T00:25:01.875Z,99.90
2019-03-24T00:26:07.242Z,99.90
2019-03-24T00:27:12.735Z,99.90
2019-03-24T00:28:18.118Z,99.90
2019-03-24T00:29:23.477Z,99.90
2019-03-24T00:30:28.859Z,99.90
2019-03-24T00:31:34.321Z,99.90
2019-03-24T00:32:39.800Z,99.90
2019-03-24T00:33:45.236Z,99.90
2019-03-24T00:34:50.601Z,99.90
2019-03-24T00:35:56.078Z,99.90
2019-03-24T00:37:01.478Z,99.90
2019-03-24T00:38:06.803Z,99.90
2019-03-24T00:39:12.324Z,99.90
2019-03-24T00:40:17.808Z,99.90
2019-03-24T00:41:23.323Z,99.90
2019-03-24T00:42:28.677Z,99.90
2019-03-24T00:43:34.081Z,99.90
2019-03-24T00:44:39.476Z,99.90
2019-03-24T00:45:44.877Z,99.90
2019-03-24T00:46:50.324Z,99.90
2019-03-24T00:47:55.719Z,99.90
2019-03-24T00:49:01.199Z,99.90
2019-03-24T00:50:06.877Z,99.90
2019-03-24T00:51:12.319Z,99.90
2019-03-24T00:52:17.725Z,99.90
2019-03-24T00:53:23.159Z,99.90
2019-03-24T00:54:28.520Z,99.90
2019-03-24T00:55:34.060Z,99.90
2019-03-24T00:56:42.411Z,99.90
2019-03-24T00:57:47.836Z,99.90
2019-03-24T00:58:53.238Z,99.90
2019-03-24T00:59:58.637Z,99.90
2019-03-24T01:01:04.132Z,99.90
2019-03-24T01:02:09.603Z,99.90
2019-03-24T01:03:15.203Z,99.90
2019-03-24T01:04:20.852Z,99.90
2019-03-24T01:05:26.357Z,99.90
2019-03-24T01:06:31.884Z,99.90
2019-03-24T01:07:37.368Z,99.90
2019-03-24T01:08:42.924Z,99.90
2019-03-24T01:09:48.356Z,99.90
2019-03-24T01:10:53.932Z,99.90
2019-03-24T01:11:59.373Z,99.90
2019-03-24T01:13:04.731Z,99.90
2019-03-24T01:14:10.236Z,99.90
2019-03-24T01:15:15.835Z,99.90
2019-03-24T01:16:21.364Z,99.90
2019-03-24T01:17:26.836Z,99.90
2019-03-24T01:18:32.163Z,99.90
2019-03-24T01:19:37.633Z,99.90
2019-03-24T01:20:43.206Z,99.90
2019-03-24T01:21:48.676Z,99.90
2019-03-24T01:22:54.049Z,99.90
2019-03-24T01:23:59.556Z,99.90
2019-03-24T01:25:05.521Z,99.90
2019-03-24T01:26:11.039Z,99.90
2019-03-24T01:27:16.446Z,99.90
2019-03-24T01:28:21.884Z,99.90
2019-03-24T01:29:27.356Z,99.90
2019-03-24T01:30:32.849Z,99.90
2019-03-24T01:31:38.128Z,99.90
2019-03-24T01:32:43.596Z,99.90
2019-03-24T01:33:48.998Z,99.90
2019-03-24T01:34:54.368Z,99.90
2019-03-24T01:35:59.875Z,99.90
2019-03-24T01:37:05.470Z,99.90
2019-03-24T01:38:10.839Z,99.90
2019-03-24T01:39:16.276Z,99.90
2019-03-24T01:40:21.816Z,99.90
2019-03-24T01:41:27.287Z,99.90
2019-03-24T01:42:32.684Z,99.90
2019-03-24T01:43:38.000Z,99.90
2019-03-24T01:44:43.402Z,99.90
2019-03-24T01:45:58.135Z,99.90
2019-03-24T01:46:55.840Z,99.90
2019-03-24T01:48:01.233Z,99.90
2019-03-24T01:49:06.684Z,99.90
2019-03-24T01:50:12.357Z,99.90
2019-03-24T01:51:17.804Z,99.90
2019-03-24T01:52:23.184Z,99.90
2019-03-24T01:53:28.596Z,99.90
2019-03-24T01:54:34.089Z,99.90
2019-03-24T01:55:39.403Z,99.90
2019-03-24T01:56:44.881Z,99.90
2019-03-24T01:57:50.316Z,99.90
2019-03-24T01:58:55.716Z,99.90
2019-03-24T02:00:01.119Z,99.90
2019-03-24T02:01:06.570Z,99.90
2019-03-24T02:02:12.438Z,99.90
2019-03-24T02:03:17.883Z,99.90
2019-03-24T02:04:23.316Z,99.90
2019-03-24T02:05:28.675Z,99.90
2019-03-24T02:06:34.084Z,99.90
2019-03-24T02:07:39.436Z,99.90
2019-03-24T02:08:44.837Z,99.90
2019-03-24T02:09:50.274Z,99.90
2019-03-24T02:10:55.677Z,99.90
2019-03-24T02:12:01.359Z,99.90
2019-03-24T02:13:06.844Z,99.90
2019-03-24T02:14:12.270Z,99.90
2019-03-24T02:15:17.958Z,99.90
2019-03-24T02:16:23.477Z,99.90
2019-03-24T02:17:28.955Z,99.90
2019-03-24T02:18:34.388Z,99.90
2019-03-24T02:19:39.891Z,99.90
2019-03-24T02:20:45.364Z,99.90
2019-03-24T02:21:50.838Z,99.90
2019-03-24T02:22:56.244Z,99.90
2019-03-24T02:24:01.606Z,99.90
2019-03-24T02:25:07.768Z,99.90
2019-03-24T02:26:13.156Z,99.90
2019-03-24T02:27:18.523Z,99.90
2019-03-24T02:28:23.892Z,99.90
2019-03-24T02:29:29.278Z,99.90
2019-03-24T02:30:34.637Z,99.90
2019-03-24T02:31:40.085Z,99.90
2019-03-24T02:32:45.524Z,99.90
2019-03-24T02:33:50.885Z,99.90
2019-03-24T02:34:56.235Z,99.90
2019-03-24T02:36:01.637Z,99.90
2019-03-24T02:37:07.040Z,99.90
2019-03-24T02:38:12.444Z,99.90
2019-03-24T02:39:17.845Z,99.90
2019-03-24T02:40:23.205Z,99.90
2019-03-24T02:41:28.659Z,99.90
2019-03-24T02:42:34.075Z,99.90
2019-03-24T02:43:39.615Z,99.90
2019-03-24T02:44:44.961Z,99.90
2019-03-24T02:45:50.397Z,99.90
2019-03-24T02:46:55.761Z,99.90
2019-03-24T02:48:01.262Z,99.90
2019-03-24T02:49:06.723Z,99.90
2019-03-24T02:50:12.113Z,99.90
2019-03-24T02:51:17.517Z,99.90
2019-03-24T02:52:23.039Z,99.90
2019-03-24T02:53:28.484Z,99.90
2019-03-24T02:54:33.890Z,99.90
2019-03-24T02:55:39.360Z,99.90
2019-03-24T02:56:44.855Z,99.90
2019-03-24T02:57:50.374Z,99.90
2019-03-24T02:58:55.765Z,99.90
2019-03-24T03:00:01.170Z,99.90
2019-03-24T03:01:06.676Z,99.90
2019-03-24T03:02:12.083Z,99.90
2019-03-24T03:03:17.637Z,99.90
2019-03-24T03:04:23.078Z,99.90
2019-03-24T03:05:28.476Z,99.90
2019-03-24T03:06:33.847Z,99.90
2019-03-24T03:07:39.396Z,99.90
2019-03-24T03:08:44.796Z,99.90
2019-03-24T03:09:50.375Z,99.90
2019-03-24T03:10:55.774Z,99.90
2019-03-24T03:12:01.369Z,99.90
2019-03-24T03:13:06.839Z,99.90
2019-03-24T03:14:12.243Z,99.90
2019-03-24T03:15:17.897Z,99.90
2019-03-24T03:16:37.615Z,99.90
2019-03-24T03:17:30.377Z,99.90
2019-03-24T03:18:35.676Z,99.90
2019-03-24T03:19:40.954Z,99.90
2019-03-24T03:20:46.276Z,99.90
2019-03-24T03:21:51.560Z,99.90
2019-03-24T03:22:56.928Z,99.90
2019-03-24T03:24:02.235Z,99.90
2019-03-24T03:25:08.082Z,99.90
2019-03-24T03:26:13.468Z,99.90
2019-03-24T03:27:18.804Z,99.90
2019-03-24T03:28:24.088Z,99.90
2019-03-24T03:29:29.354Z,99.90
2019-03-24T03:30:34.650Z,99.90
2019-03-24T03:31:39.937Z,99.90
2019-03-24T03:32:45.254Z,99.90
2019-03-24T03:33:50.582Z,99.90
2019-03-24T03:34:55.909Z,99.90
2019-03-24T03:36:01.236Z,99.90
2019-03-24T03:37:06.635Z,99.90
2019-03-24T03:38:11.975Z,99.90
2019-03-24T03:39:17.265Z,99.90
2019-03-24T03:40:22.558Z,99.90
2019-03-24T03:41:27.873Z,99.90
2019-03-24T03:42:33.321Z,99.90
2019-03-24T03:43:38.653Z,99.90
2019-03-24T03:44:43.961Z,99.90
2019-03-24T03:45:49.263Z,99.90
2019-03-24T03:46:54.565Z,99.90
2019-03-24T03:47:59.871Z,99.90
2019-03-24T03:49:05.173Z,99.90
2019-03-24T03:50:11.264Z,99.90
2019-03-24T03:51:16.602Z,99.90
2019-03-24T03:52:21.908Z,99.90
2019-03-24T03:53:27.221Z,99.90
2019-03-24T03:54:32.520Z,99.90
2019-03-24T03:55:37.816Z,99.90
2019-03-24T03:56:43.116Z,99.90
2019-03-24T03:57:48.468Z,99.90
2019-03-24T03:58:53.760Z,99.90
2019-03-24T03:59:59.070Z,99.90
2019-03-24T04:01:04.486Z,99.90
2019-03-24T04:02:09.741Z,99.90
2019-03-24T04:03:15.140Z,99.90
2019-03-24T04:04:20.493Z,99.90
2019-03-24T04:05:25.814Z,99.90
2019-03-24T04:06:31.221Z,99.90
2019-03-24T04:07:36.541Z,99.90
2019-03-24T04:08:41.833Z,99.90
2019-03-24T04:09:47.136Z,99.90
2019-03-24T04:10:52.421Z,99.90
2019-03-24T04:11:57.724Z,99.90
2019-03-24T04:13:03.045Z,99.90
2019-03-24T04:14:08.323Z,99.90
2019-03-24T04:15:13.665Z,99.90
2019-03-24T04:16:18.968Z,99.90
2019-03-24T04:17:24.300Z,99.90
2019-03-24T04:18:29.631Z,99.90
2019-03-24T04:19:34.937Z,99.90
2019-03-24T04:20:40.240Z,99.90
2019-03-24T04:21:45.552Z,99.90
2019-03-24T04:22:50.894Z,99.90
2019-03-24T04:23:56.183Z,99.90
2019-03-24T04:25:01.517Z,99.90
2019-03-24T04:26:06.930Z,99.90
2019-03-24T04:27:12.303Z,99.90
2019-03-24T04:28:17.645Z,99.90
2019-03-24T04:29:22.881Z,99.90
2019-03-24T04:30:28.161Z,99.90
2019-03-24T04:31:33.469Z,99.90
2019-03-24T04:32:38.786Z,99.90
2019-03-24T04:33:44.121Z,99.90
2019-03-24T04:34:49.409Z,99.90
2019-03-24T04:35:54.673Z,99.90
2019-03-24T04:36:59.985Z,99.90
2019-03-24T04:38:05.320Z,99.90
2019-03-24T04:39:10.615Z,99.90
2019-03-24T04:40:15.898Z,99.90
2019-03-24T04:41:21.212Z,99.90
2019-03-24T04:42:26.460Z,99.90
2019-03-24T04:43:31.808Z,99.90
2019-03-24T04:44:37.103Z,99.90
2019-03-24T04:45:42.447Z,99.90
2019-03-24T04:46:47.719Z,99.90
2019-03-24T04:47:53.011Z,99.90
2019-03-24T04:48:58.357Z,99.90
2019-03-24T04:50:03.674Z,99.90
2019-03-24T04:51:08.979Z,99.90
2019-03-24T04:52:14.321Z,99.90
2019-03-24T04:53:20.826Z,99.90
2019-03-24T04:54:26.329Z,99.90
2019-03-24T04:55:31.620Z,99.90
2019-03-24T04:56:37.031Z,99.90
2019-03-24T04:57:42.312Z,99.90
2019-03-24T04:58:47.630Z,99.90
2019-03-24T04:59:52.908Z,99.90
2019-03-24T05:00:58.212Z,99.90
2019-03-24T05:02:03.600Z,99.90
2019-03-24T05:03:09.069Z,99.90
2019-03-24T05:04:14.384Z,99.90
2019-03-24T05:05:19.668Z,99.90
2019-03-24T05:06:25.133Z,99.90
2019-03-24T05:07:30.520Z,99.90
2019-03-24T05:08:36.090Z,99.90
2019-03-24T05:09:41.887Z,99.90
2019-03-24T05:10:47.181Z,99.90
2019-03-24T05:11:52.472Z,99.90
2019-03-24T05:12:57.764Z,99.90
2019-03-24T05:14:03.066Z,99.90
2019-03-24T05:15:08.465Z,99.90
2019-03-24T05:16:13.815Z,99.90
2019-03-24T05:17:26.654Z,99.90
2019-03-24T05:18:26.071Z,99.90
2019-03-24T05:19:31.347Z,99.90
2019-03-24T05:20:36.672Z,99.90
2019-03-24T05:21:41.957Z,99.90
2019-03-24T05:22:47.267Z,99.90
2019-03-24T05:23:52.555Z,99.90
2019-03-24T05:24:57.864Z,99.90
2019-03-24T05:26:03.308Z,99.90
2019-03-24T05:27:08.680Z,99.90
2019-03-24T05:28:13.935Z,99.90
2019-03-24T05:29:19.339Z,99.90
2019-03-24T05:30:24.694Z,99.90
2019-03-24T05:31:29.952Z,99.90
2019-03-24T05:32:35.430Z,99.90
2019-03-24T05:33:40.819Z,99.90
2019-03-24T05:34:46.136Z,99.90
2019-03-24T05:35:51.537Z,99.90
2019-03-24T05:36:56.984Z,99.90
2019-03-24T05:38:02.524Z,99.90
2019-03-24T05:39:08.671Z,99.90
2019-03-24T05:40:14.345Z,99.90
2019-03-24T05:41:19.942Z,99.90
2019-03-24T05:42:25.261Z,99.90
2019-03-24T05:43:30.698Z,99.90
2019-03-24T05:44:36.177Z,99.90
2019-03-24T05:45:41.536Z,99.90
2019-03-24T05:46:46.977Z,99.90
2019-03-24T05:47:52.317Z,99.90
2019-03-24T05:48:57.792Z,99.90
2019-03-24T05:50:03.123Z,99.90
2019-03-24T05:51:08.635Z,99.90
2019-03-24T05:52:13.977Z,99.90
2019-03-24T05:53:19.416Z,99.90
2019-03-24T05:54:24.828Z,99.90
2019-03-24T05:55:30.314Z,99.90
2019-03-24T05:56:35.711Z,99.90
2019-03-24T05:57:41.183Z,99.90
2019-03-24T05:58:46.576Z,99.90
2019-03-24T05:59:52.071Z,99.90
2019-03-24T06:00:57.495Z,99.90
2019-03-24T06:02:03.031Z,99.90
2019-03-24T06:03:08.567Z,99.90
2019-03-24T06:04:13.987Z,99.90
2019-03-24T06:05:19.524Z,99.90
2019-03-24T06:06:24.938Z,99.90
2019-03-24T06:07:30.426Z,99.90
2019-03-24T06:08:35.996Z,99.90
2019-03-24T06:09:41.460Z,99.90
2019-03-24T06:10:46.879Z,99.90
2019-03-24T06:11:52.266Z,99.90
2019-03-24T06:12:57.569Z,99.90
2019-03-24T06:14:02.986Z,99.90
2019-03-24T06:15:10.536Z,99.90
2019-03-24T06:16:15.957Z,99.90
2019-03-24T06:17:21.364Z,99.90
2019-03-24T06:18:27.027Z,99.90
2019-03-24T06:19:32.460Z,99.90
2019-03-24T06:20:37.866Z,99.90
2019-03-24T06:21:43.299Z,99.90
2019-03-24T06:22:48.776Z,99.90
2019-03-24T06:23:54.296Z,99.90
2019-03-24T06:24:59.835Z,99.90
2019-03-24T06:26:05.953Z,99.90
2019-03-24T06:27:11.508Z,99.90
2019-03-24T06:28:17.013Z,99.90
2019-03-24T06:29:22.545Z,99.90
2019-03-24T06:30:28.022Z,99.90
2019-03-24T06:31:33.426Z,99.90
2019-03-24T06:32:38.937Z,99.90
2019-03-24T06:33:44.339Z,99.90
2019-03-24T06:34:49.776Z,99.90
2019-03-24T06:35:55.233Z,99.90
2019-03-24T06:37:00.640Z,99.90
2019-03-24T06:38:06.296Z,99.90
2019-03-24T06:39:11.829Z,99.90
2019-03-24T06:40:19.681Z,99.90
2019-03-24T06:41:24.465Z,99.90
2019-03-24T06:42:29.856Z,99.90
2019-03-24T06:43:35.273Z,99.90
2019-03-24T06:44:40.705Z,99.90
2019-03-24T06:45:46.179Z,99.90
2019-03-24T06:46:51.655Z,99.90
2019-03-24T06:47:58.220Z,99.90
2019-03-24T06:49:03.826Z,99.90
2019-03-24T06:50:09.709Z,99.90
2019-03-24T06:51:15.108Z,99.90
2019-03-24T06:52:20.831Z,99.90
2019-03-24T06:53:26.302Z,99.90
2019-03-24T06:54:31.832Z,99.90
2019-03-24T06:55:37.266Z,99.90
2019-03-24T06:56:42.660Z,99.90
2019-03-24T06:57:48.153Z,99.90
2019-03-24T06:58:53.516Z,99.90
2019-03-24T06:59:58.964Z,99.90
2019-03-24T07:01:04.417Z,99.90
2019-03-24T07:02:09.828Z,99.90
2019-03-24T07:03:15.217Z,99.90
2019-03-24T07:04:20.656Z,99.90
2019-03-24T07:05:26.136Z,99.90
2019-03-24T07:06:31.551Z,99.90
2019-03-24T07:07:37.045Z,99.90
2019-03-24T07:08:42.513Z,99.90
2019-03-24T07:09:48.010Z,99.90
2019-03-24T07:10:53.457Z,99.90
2019-03-24T07:12:00.151Z,99.90
2019-03-24T07:13:05.839Z,99.90
2019-03-24T07:14:11.284Z,99.90
2019-03-24T07:15:16.909Z,99.90
2019-03-24T07:16:22.355Z,99.90
2019-03-24T07:17:27.899Z,99.90
2019-03-24T07:18:33.385Z,99.90
2019-03-24T07:19:38.698Z,99.90
2019-03-24T07:20:44.143Z,99.90
2019-03-24T07:21:49.627Z,99.90
2019-03-24T07:22:55.099Z,99.90
2019-03-24T07:24:00.625Z,99.90
2019-03-24T07:25:06.580Z,99.90
2019-03-24T07:26:12.028Z,99.90
2019-03-24T07:27:17.457Z,99.90
2019-03-24T07:28:24.888Z,99.90
2019-03-24T07:29:30.135Z,99.90
2019-03-24T07:30:35.539Z,99.90
2019-03-24T07:31:40.976Z,99.90
2019-03-24T07:32:46.473Z,99.90
2019-03-24T07:33:51.982Z,99.90
2019-03-24T07:34:57.417Z,99.90
2019-03-24T07:36:02.866Z,99.90
2019-03-24T07:37:08.307Z,99.90
2019-03-24T07:38:13.704Z,99.90
2019-03-24T07:39:19.190Z,99.90
2019-03-24T07:40:24.667Z,99.90
2019-03-24T07:41:30.002Z,99.90
2019-03-24T07:42:35.379Z,99.90
2019-03-24T07:43:40.858Z,99.90
2019-03-24T07:44:46.317Z,99.90
2019-03-24T07:45:54.787Z,99.90
2019-03-24T07:47:00.224Z,99.90
2019-03-24T07:48:05.618Z,99.90
2019-03-24T07:49:11.137Z,99.90
2019-03-24T07:50:18.170Z,99.90
2019-03-24T07:51:23.539Z,99.90
2019-03-24T07:52:29.024Z,99.90
2019-03-24T07:53:34.417Z,99.90
2019-03-24T07:54:39.857Z,99.90
2019-03-24T07:55:45.455Z,99.90
2019-03-24T07:56:50.891Z,99.90
2019-03-24T07:57:56.422Z,99.90
2019-03-24T07:59:01.783Z,99.90
2019-03-24T08:00:09.425Z,99.90
2019-03-24T08:01:14.968Z,99.90
2019-03-24T08:02:20.307Z,99.90
2019-03-24T08:03:25.758Z,99.90
2019-03-24T08:04:31.221Z,99.90
2019-03-24T08:05:36.709Z,99.90
2019-03-24T08:06:42.190Z,99.90
2019-03-24T08:07:47.557Z,99.90
2019-03-24T08:08:52.896Z,99.90
2019-03-24T08:09:58.325Z,99.90
2019-03-24T08:11:04.091Z,99.90
2019-03-24T08:12:09.579Z,99.90
2019-03-24T08:13:14.962Z,99.90
2019-03-24T08:14:20.416Z,99.90
2019-03-24T08:15:25.828Z,99.90
2019-03-24T08:16:31.204Z,99.90
2019-03-24T08:17:36.696Z,99.90
2019-03-24T08:18:42.267Z,99.90
2019-03-24T08:19:48.182Z,99.90
2019-03-24T08:20:53.767Z,99.90
2019-03-24T08:21:59.207Z,99.90
2019-03-24T08:23:04.719Z,99.90
2019-03-24T08:24:10.177Z,99.90
2019-03-24T08:25:15.713Z,99.90
2019-03-24T08:26:21.227Z,99.90
2019-03-24T08:27:26.425Z,99.90
2019-03-24T08:28:31.733Z,99.90
2019-03-24T08:29:37.095Z,99.90
2019-03-24T08:30:42.383Z,99.90
2019-03-24T08:31:47.684Z,99.90
2019-03-24T08:32:53.013Z,99.90
2019-03-24T08:33:58.336Z,99.90
2019-03-24T08:35:03.651Z,99.90
2019-03-24T08:36:09.078Z,99.90
2019-03-24T08:37:14.406Z,99.90
2019-03-24T08:38:19.722Z,99.90
2019-03-24T08:39:25.067Z,99.90
2019-03-24T08:40:45.186Z,99.90
2019-03-24T08:41:50.567Z,99.90
2019-03-24T08:42:55.971Z,99.90
2019-03-24T08:44:01.356Z,99.90
2019-03-24T08:45:08.484Z,99.90
2019-03-24T08:46:13.826Z,99.90
2019-03-24T08:47:19.358Z,99.90
2019-03-24T08:48:24.718Z,99.90
2019-03-24T08:49:30.050Z,99.90
2019-03-24T08:50:35.474Z,99.90
2019-03-24T08:51:40.874Z,99.90
2019-03-24T08:52:46.162Z,99.90
2019-03-24T08:53:51.542Z,99.90
2019-03-24T08:54:56.853Z,99.90
2019-03-24T08:56:02.156Z,99.90
2019-03-24T08:57:07.546Z,99.90
2019-03-24T08:58:12.826Z,99.90
2019-03-24T08:59:18.117Z,99.90
2019-03-24T09:00:30.564Z,99.90
2019-03-24T09:01:30.546Z,99.90
2019-03-24T09:02:35.878Z,99.90
2019-03-24T09:03:41.108Z,99.90
2019-03-24T09:04:46.416Z,99.90
2019-03-24T09:05:51.710Z,99.90
2019-03-24T09:06:57.162Z,99.90
2019-03-24T09:08:02.637Z,99.90
2019-03-24T09:09:09.158Z,99.90
2019-03-24T09:10:14.666Z,99.90
2019-03-24T09:11:30.634Z,99.90
2019-03-24T09:12:27.009Z,99.90
2019-03-24T09:13:32.299Z,99.90
2019-03-24T09:14:37.612Z,99.90
2019-03-24T09:15:43.271Z,99.90
2019-03-24T09:16:48.724Z,99.90
2019-03-24T09:17:54.024Z,99.90
2019-03-24T09:18:59.337Z,99.90
2019-03-24T09:20:04.675Z,99.90
2019-03-24T09:21:10.039Z,99.90
2019-03-24T09:22:15.390Z,99.90
2019-03-24T09:23:20.768Z,99.90
2019-03-24T09:24:26.073Z,99.90
2019-03-24T09:25:31.443Z,99.90
2019-03-24T09:26:36.975Z,99.90
2019-03-24T09:27:42.298Z,99.90
2019-03-24T09:28:47.594Z,99.90
2019-03-24T09:29:52.922Z,99.90
2019-03-24T09:30:58.294Z,99.90
2019-03-24T09:32:03.615Z,99.90
2019-03-24T09:33:08.956Z,99.90
2019-03-24T09:34:14.281Z,99.90
2019-03-24T09:35:19.689Z,99.90
2019-03-24T09:36:25.161Z,99.90
2019-03-24T09:37:30.581Z,99.90
2019-03-24T09:38:35.964Z,99.90
2019-03-24T09:39:41.352Z,99.90
2019-03-24T09:40:46.744Z,99.90
2019-03-24T09:41:52.300Z,99.90
2019-03-24T09:42:58.586Z,99.90
2019-03-24T09:44:04.055Z,99.90
2019-03-24T09:45:09.695Z,99.90
2019-03-24T09:46:15.229Z,99.90
2019-03-24T09:47:20.779Z,99.90
2019-03-24T09:48:26.197Z,99.90
2019-03-24T09:49:31.587Z,99.90
2019-03-24T09:50:37.505Z,99.90
2019-03-24T09:51:43.064Z,99.90
2019-03-24T09:52:48.513Z,99.90
2019-03-24T09:53:54.059Z,99.90
2019-03-24T09:54:59.440Z,99.90
2019-03-24T09:56:04.911Z,99.90
2019-03-24T09:57:10.346Z,99.90
2019-03-24T09:58:15.855Z,99.90
2019-03-24T09:59:21.194Z,99.90
2019-03-24T10:00:26.584Z,99.90
2019-03-24T10:01:31.992Z,99.90
2019-03-24T10:02:37.539Z,99.90
2019-03-24T10:03:42.989Z,99.90
2019-03-24T10:04:48.412Z,99.90
2019-03-24T10:05:53.957Z,99.90
2019-03-24T10:06:59.461Z,99.90
2019-03-24T10:08:05.122Z,99.90
2019-03-24T10:09:10.702Z,99.90
2019-03-24T10:10:16.338Z,99.90
2019-03-24T10:11:21.871Z,99.90
2019-03-24T10:12:27.504Z,99.90
2019-03-24T10:13:32.949Z,99.90
2019-03-24T10:14:38.340Z,99.90
2019-03-24T10:15:43.737Z,99.90
2019-03-24T10:16:49.358Z,99.90
2019-03-24T10:17:54.951Z,99.90
2019-03-24T10:19:00.387Z,99.90
2019-03-24T10:20:06.564Z,99.90
2019-03-24T10:21:12.096Z,99.90
2019-03-24T10:22:17.585Z,99.90
2019-03-24T10:23:23.150Z,99.90
2019-03-24T10:24:28.701Z,99.90
2019-03-24T10:25:34.221Z,99.90
2019-03-24T10:26:39.620Z,99.90
2019-03-24T10:27:45.219Z,99.90
2019-03-24T10:28:50.616Z,99.90
2019-03-24T10:29:56.062Z,99.90
2019-03-24T10:31:01.472Z,99.90
2019-03-24T10:32:07.022Z,99.90
2019-03-24T10:33:12.518Z,99.90
2019-03-24T10:34:17.940Z,99.90
2019-03-24T10:35:23.355Z,99.90
2019-03-24T10:36:28.859Z,99.90
2019-03-24T10:37:34.292Z,99.90
2019-03-24T10:38:39.794Z,99.90
2019-03-24T10:39:45.398Z,99.90
2019-03-24T10:40:53.793Z,99.90
2019-03-24T10:41:59.220Z,99.90
2019-03-24T10:43:04.658Z,99.90
2019-03-24T10:44:10.168Z,99.90
2019-03-24T10:45:15.746Z,99.90
2019-03-24T10:46:21.139Z,99.90
2019-03-24T10:47:26.580Z,99.90
2019-03-24T10:48:33.867Z,99.90
2019-03-24T10:49:39.149Z,99.90
2019-03-24T10:50:44.658Z,99.90
2019-03-24T10:51:50.047Z,99.90
2019-03-24T10:52:56.856Z,99.90
2019-03-24T10:54:02.697Z,99.90
2019-03-24T10:55:09.777Z,99.90
2019-03-24T10:56:15.336Z,99.90
2019-03-24T10:57:20.701Z,99.90
2019-03-24T10:58:26.134Z,99.90
2019-03-24T10:59:31.467Z,99.90
2019-03-24T11:00:41.398Z,99.90
2019-03-24T11:01:46.651Z,99.90
2019-03-24T11:02:51.995Z,99.90
2019-03-24T11:03:57.325Z,99.90
2019-03-24T11:05:02.653Z,99.90
2019-03-24T11:06:08.008Z,99.90
2019-03-24T11:07:13.369Z,99.90
2019-03-24T11:08:18.738Z,99.90
2019-03-24T11:09:24.149Z,99.90
2019-03-24T11:10:29.488Z,99.90
2019-03-24T11:11:34.928Z,99.90
2019-03-24T11:12:40.337Z,99.90
2019-03-24T11:13:45.815Z,99.90
2019-03-24T11:14:51.185Z,99.90
2019-03-24T11:15:56.558Z,99.90
2019-03-24T11:17:01.945Z,99.90
2019-03-24T11:18:07.439Z,99.90
2019-03-24T11:19:12.752Z,99.90
2019-03-24T11:20:18.177Z,99.90
2019-03-24T11:21:23.509Z,99.90
2019-03-24T11:22:28.835Z,99.30
2019-03-24T11:23:34.137Z,99.10
2019-03-24T11:24:39.473Z,97.60
2019-03-24T11:25:44.800Z,98.60
2019-03-24T11:26:50.264Z,98.50
2019-03-24T11:27:55.573Z,98.40
2019-03-24T11:29:00.993Z,98.50
2019-03-24T11:30:08.354Z,97.60
2019-03-24T11:31:13.861Z,97.10
2019-03-24T11:32:19.381Z,98.20
2019-03-24T11:33:24.782Z,98.90
2019-03-24T11:34:30.222Z,99.90
2019-03-24T11:35:35.509Z,99.90
2019-03-24T11:36:40.835Z,99.40
2019-03-24T11:37:46.170Z,99.90
2019-03-24T11:38:51.470Z,99.90
2019-03-24T11:39:56.816Z,99.20
2019-03-24T11:41:02.296Z,99.30
2019-03-24T11:42:07.751Z,98.70
2019-03-24T11:43:13.080Z,98.20
2019-03-24T11:44:18.595Z,99.80
2019-03-24T11:45:23.979Z,99.90
2019-03-24T11:46:29.350Z,99.90
2019-03-24T11:47:34.698Z,99.90
2019-03-24T11:48:41.141Z,99.90
2019-03-24T11:49:49.016Z,99.90
2019-03-24T11:50:53.424Z,99.90
2019-03-24T11:51:58.739Z,99.60
2019-03-24T11:53:04.052Z,99.70
2019-03-24T11:54:09.389Z,99.90
2019-03-24T11:55:14.970Z,99.90
2019-03-24T11:56:20.359Z,99.90
2019-03-24T11:57:25.684Z,99.90
2019-03-24T11:58:31.043Z,99.90
2019-03-24T11:59:36.273Z,99.90
2019-03-24T12:00:41.551Z,99.90
2019-03-24T12:01:46.831Z,99.90
2019-03-24T12:02:52.129Z,99.90
2019-03-24T12:03:57.421Z,99.90
2019-03-24T12:05:02.775Z,99.90
2019-03-24T12:06:14.494Z,99.90
2019-03-24T12:07:15.332Z,99.90
2019-03-24T12:08:23.537Z,99.90
2019-03-24T12:09:29.021Z,99.90
2019-03-24T12:10:34.345Z,99.90
2019-03-24T12:11:39.696Z,99.90
2019-03-24T12:12:45.070Z,99.90
2019-03-24T12:13:50.487Z,99.90
2019-03-24T12:14:55.988Z,99.90
2019-03-24T12:16:01.378Z,99.90
2019-03-24T12:17:07.170Z,99.90
2019-03-24T12:18:12.591Z,99.90
2019-03-24T12:19:17.948Z,99.90
2019-03-24T12:20:23.296Z,99.90
2019-03-24T12:21:28.655Z,99.90
2019-03-24T12:22:34.164Z,99.90
2019-03-24T12:23:39.507Z,99.90
2019-03-24T12:24:44.847Z,99.90
2019-03-24T12:25:50.309Z,99.90
2019-03-24T12:26:55.675Z,99.90
2019-03-24T12:28:01.019Z,99.90
2019-03-24T12:29:06.524Z,99.90
2019-03-24T12:30:12.654Z,99.90
2019-03-24T12:31:18.032Z,99.90
2019-03-24T12:32:23.499Z,99.90
2019-03-24T12:33:28.901Z,99.90
2019-03-24T12:34:34.198Z,99.90
2019-03-24T12:35:39.547Z,99.90
2019-03-24T12:36:44.907Z,99.90
2019-03-24T12:37:50.277Z,99.90
2019-03-24T12:38:55.653Z,99.90
2019-03-24T12:40:01.060Z,99.90
2019-03-24T12:41:06.453Z,99.90
2019-03-24T12:42:11.776Z,99.90
2019-03-24T12:43:19.702Z,99.90
2019-03-24T12:44:24.273Z,99.90
2019-03-24T12:45:29.628Z,99.90
2019-03-24T12:46:35.058Z,99.90
2019-03-24T12:47:40.358Z,99.90
2019-03-24T12:48:45.656Z,99.90
2019-03-24T12:49:51.074Z,99.90
2019-03-24T12:50:56.341Z,99.70
2019-03-24T12:52:01.663Z,99.50
2019-03-24T12:53:07.230Z,99.30
2019-03-24T12:54:12.614Z,99.60
2019-03-24T12:55:18.214Z,98.10
2019-03-24T12:56:23.725Z,98.40
2019-03-24T12:57:29.291Z,99.00
2019-03-24T12:58:34.843Z,99.20
2019-03-24T12:59:40.407Z,99.20
2019-03-24T13:00:45.956Z,98.40
2019-03-24T13:01:52.909Z,98.00
2019-03-24T13:02:58.503Z,96.40
2019-03-24T13:04:03.950Z,96.30
2019-03-24T13:05:11.212Z,95.10
2019-03-24T13:06:16.640Z,94.90
2019-03-24T13:07:22.081Z,95.60
2019-03-24T13:08:27.559Z,95.90
2019-03-24T13:09:33.749Z,95.40
2019-03-24T13:10:39.397Z,95.20
2019-03-24T13:11:44.831Z,96.50
2019-03-24T13:12:50.304Z,96.70
2019-03-24T13:13:55.890Z,97.00
2019-03-24T13:15:01.553Z,97.70
2019-03-24T13:16:07.152Z,98.00
2019-03-24T13:17:12.950Z,98.50
2019-03-24T13:18:18.525Z,98.00
2019-03-24T13:19:23.890Z,97.50
2019-03-24T13:20:38.191Z,97.40
2019-03-24T13:21:36.472Z,97.40
2019-03-24T13:22:41.912Z,96.80
2019-03-24T16:48:02.059Z,99.90
2019-03-24T16:49:07.547Z,99.90
2019-03-24T16:50:13.300Z,99.90
2019-03-24T16:51:18.697Z,99.90
2019-03-24T16:52:24.129Z,99.90
2019-03-24T16:53:29.817Z,99.90
2019-03-24T16:54:35.353Z,99.90
2019-03-24T16:55:40.875Z,99.90
2019-03-24T16:56:46.342Z,99.90
2019-03-24T16:57:51.849Z,99.90
2019-03-24T16:58:57.350Z,99.90
2019-03-24T17:00:03.626Z,99.90
2019-03-24T17:01:09.216Z,99.90
2019-03-24T17:02:14.935Z,99.90
2019-03-24T17:03:20.348Z,99.90
2019-03-24T17:04:25.938Z,99.90
2019-03-24T17:05:31.386Z,99.90
2019-03-24T17:06:37.027Z,99.90
2019-03-24T17:07:42.641Z,99.90
2019-03-24T17:08:48.036Z,99.90
2019-03-24T17:09:53.483Z,99.90
2019-03-24T17:10:59.000Z,99.90
2019-03-24T17:12:04.400Z,99.90
2019-03-24T17:13:09.931Z,99.90
2019-03-24T17:14:15.437Z,99.90
2019-03-24T17:15:20.873Z,99.90
2019-03-24T17:16:26.367Z,99.90
2019-03-24T17:17:31.799Z,99.90
2019-03-24T17:18:37.360Z,99.90
2019-03-24T17:19:42.929Z,99.90
2019-03-24T17:20:48.361Z,99.90
2019-03-24T17:21:53.811Z,99.90
2019-03-24T17:22:59.282Z,99.90
2019-03-24T17:24:04.839Z,99.90
2019-03-24T17:25:12.006Z,99.90
2019-03-24T17:26:17.466Z,99.90
2019-03-24T17:27:22.937Z,99.90
2019-03-24T17:28:28.479Z,99.90